createdAt,value
2019-02-27T00:01:20.916Z,8.40
2019-02-27T00:03:50.507Z,8.40
2019-02-27T00:06:20.198Z,8.20
2019-02-27T00:08:49.787Z,8.20
2019-02-27T00:11:19.398Z,8.20
2019-02-27T00:13:49.102Z,8.00
2019-02-27T00:16:18.691Z,7.80
2019-02-27T00:18:48.385Z,7.70
2019-02-27T00:21:18.059Z,7.70
2019-02-27T00:23:47.672Z,7.60
2019-02-27T00:26:17.260Z,7.40
2019-02-27T00:28:46.876Z,7.30
2019-02-27T00:31:16.463Z,7.20
2019-02-27T00:33:46.086Z,7.10
2019-02-27T00:36:15.674Z,7.10
2019-02-27T00:38:45.282Z,7.20
2019-02-27T00:41:14.918Z,7.50
2019-02-27T00:43:44.505Z,7.60
2019-02-27T00:46:14.101Z,7.50
2019-02-27T00:48:43.712Z,7.50
2019-02-27T00:51:13.306Z,7.40
2019-02-27T00:53:42.921Z,7.30
2019-02-27T00:56:12.912Z,7.20
2019-02-27T00:58:42.638Z,7.20
2019-02-27T01:01:12.678Z,7.30
2019-02-27T01:03:42.978Z,7.40
2019-02-27T01:06:14.825Z,7.40
2019-02-27T01:08:44.653Z,7.40
2019-02-27T01:11:18.096Z,7.20
2019-02-27T01:13:45.556Z,7.30
2019-02-27T01:16:17.247Z,7.20
2019-02-27T01:18:48.187Z,7.10
2019-02-27T01:21:19.936Z,7.00
2019-02-27T01:23:49.113Z,6.90
2019-02-27T01:29:18.154Z,6.90
2019-02-27T01:31:47.838Z,6.70
2019-02-27T01:34:17.447Z,6.70
2019-02-27T01:36:47.061Z,6.60
2019-02-27T01:39:16.650Z,6.50
2019-02-27T01:41:46.268Z,6.40
2019-02-27T01:44:15.955Z,6.20
2019-02-27T01:46:45.638Z,6.20
2019-02-27T01:49:16.094Z,6.20
2019-02-27T01:51:46.394Z,6.30
2019-02-27T01:54:16.011Z,6.30
2019-02-27T01:56:45.600Z,6.30
2019-02-27T01:59:16.781Z,6.40
2019-02-27T02:01:46.530Z,6.40
2019-02-27T02:04:19.978Z,6.40
2019-02-27T02:06:47.462Z,6.40
2019-02-27T02:09:34.284Z,6.40
2019-02-27T02:12:16.884Z,6.50
2019-02-27T02:14:59.829Z,6.40
2019-02-27T02:18:15.838Z,6.10
2019-02-27T02:21:20.245Z,6.00
2019-02-27T02:23:56.318Z,6.10
2019-02-27T02:26:58.210Z,6.10
2019-02-27T02:30:12.137Z,6.10
2019-02-27T02:33:05.936Z,6.10
2019-02-27T02:36:07.181Z,6.00
2019-02-27T02:39:00.791Z,5.90
2019-02-27T02:41:49.588Z,6.00
2019-02-27T02:44:42.131Z,6.00
2019-02-27T02:47:28.352Z,6.00
2019-02-27T02:50:26.454Z,6.00
2019-02-27T02:53:11.647Z,5.80
2019-02-27T02:56:25.005Z,5.70
2019-02-27T02:59:35.293Z,5.60
2019-02-27T03:02:23.743Z,5.60
2019-02-27T03:05:05.902Z,5.60
2019-02-27T03:08:04.394Z,5.60
2019-02-27T03:10:47.180Z,5.60
2019-02-27T03:14:00.825Z,5.60
2019-02-27T03:16:41.378Z,5.60
2019-02-27T03:19:57.524Z,5.40
2019-02-27T03:22:47.041Z,5.50
2019-02-27T03:25:42.177Z,5.40
2019-02-27T03:28:27.893Z,5.50
2019-02-27T03:31:18.994Z,5.50
2019-02-27T03:34:10.203Z,5.40
2019-02-27T03:36:44.661Z,5.30
2019-02-27T03:39:35.961Z,5.20
2019-02-27T03:42:39.969Z,5.00
2019-02-27T03:45:34.841Z,4.90
2019-02-27T03:48:54.671Z,4.70
2019-02-27T03:51:49.735Z,4.60
2019-02-27T03:54:48.389Z,4.40
2019-02-27T03:57:25.134Z,4.40
2019-02-27T04:00:11.079Z,4.50
2019-02-27T04:03:02.392Z,4.40
2019-02-27T04:05:46.245Z,4.50
2019-02-27T04:08:29.167Z,4.60
2019-02-27T04:10:58.831Z,4.60
2019-02-27T04:13:28.864Z,4.40
2019-02-27T04:15:58.485Z,4.40
2019-02-27T04:18:28.435Z,4.60
2019-02-27T04:20:58.548Z,4.70
2019-02-27T04:23:28.141Z,4.80
2019-02-27T04:25:57.753Z,4.70
2019-02-27T04:28:29.977Z,4.80
2019-02-27T04:30:58.676Z,4.80
2019-02-27T04:33:28.333Z,4.90
2019-02-27T04:35:57.942Z,4.80
2019-02-27T04:38:28.175Z,4.70
2019-02-27T04:40:57.895Z,4.50
2019-02-27T04:43:31.967Z,4.40
2019-02-27T04:45:58.963Z,4.40
2019-02-27T04:48:29.935Z,4.40
2019-02-27T04:50:59.983Z,4.40
2019-02-27T04:53:31.824Z,4.40
2019-02-27T04:56:01.006Z,4.30
2019-02-27T04:58:31.358Z,4.30
2019-02-27T05:01:01.151Z,4.20
2019-02-27T05:03:31.538Z,4.40
2019-02-27T05:06:01.177Z,4.40
2019-02-27T05:08:30.766Z,4.50
2019-02-27T05:11:00.364Z,4.80
2019-02-27T05:13:29.986Z,4.90
2019-02-27T05:16:01.415Z,5.00
2019-02-27T05:18:31.588Z,5.00
2019-02-27T05:21:01.248Z,5.00
2019-02-27T05:23:33.315Z,5.00
2019-02-27T05:26:02.457Z,5.10
2019-02-27T05:28:34.835Z,5.00
2019-02-27T05:31:04.138Z,5.10
2019-02-27T05:33:36.521Z,5.00
2019-02-27T05:36:05.146Z,5.10
2019-02-27T05:38:35.033Z,5.10
2019-02-27T05:41:04.614Z,5.00
2019-02-27T05:43:35.139Z,4.90
2019-02-27T05:46:04.803Z,5.10
2019-02-27T05:48:34.424Z,5.10
2019-02-27T05:51:05.001Z,5.10
2019-02-27T05:53:35.495Z,5.10
2019-02-27T05:56:05.163Z,5.00
2019-02-27T05:58:35.648Z,5.10
2019-02-27T06:01:05.849Z,5.20
2019-02-27T06:03:35.527Z,5.30
2019-02-27T06:06:06.750Z,5.50
2019-02-27T06:08:38.108Z,5.70
2019-02-27T06:11:07.807Z,5.80
2019-02-27T06:13:37.398Z,5.70
2019-02-27T06:16:09.196Z,5.70
2019-02-27T06:18:38.324Z,5.80
2019-02-27T06:21:10.560Z,5.80
2019-02-27T06:23:40.178Z,5.80
2019-02-27T06:26:11.332Z,5.90
2019-02-27T06:28:41.975Z,5.90
2019-02-27T06:31:12.708Z,5.90
2019-02-27T06:33:45.776Z,6.00
2019-02-27T06:36:15.203Z,6.10
2019-02-27T06:38:45.395Z,6.30
2019-02-27T06:41:16.459Z,6.50
2019-02-27T06:43:46.077Z,6.60
2019-02-27T06:46:17.355Z,6.60
2019-02-27T06:48:47.255Z,6.70
2019-02-27T06:51:16.845Z,6.80
2019-02-27T06:53:47.804Z,6.80
2019-02-27T06:56:17.869Z,7.00
2019-02-27T06:58:49.899Z,7.20
2019-02-27T07:01:18.803Z,7.40
2019-02-27T07:03:48.471Z,7.40
2019-02-27T07:06:21.302Z,7.60
2019-02-27T07:08:49.613Z,7.70
2019-02-27T07:11:19.866Z,7.80
2019-02-27T07:13:49.492Z,8.00
2019-02-27T07:16:20.570Z,8.10
2019-02-27T07:18:50.433Z,8.40
2019-02-27T07:21:20.819Z,8.60
2019-02-27T07:23:51.195Z,8.80
2019-02-27T07:26:20.786Z,8.90
2019-02-27T07:28:50.540Z,9.10
2019-02-27T07:31:20.133Z,9.20
2019-02-27T07:33:50.211Z,9.30
2019-02-27T07:36:19.801Z,9.50
2019-02-27T07:38:49.681Z,9.70
2019-02-27T07:41:20.917Z,9.90
2019-02-27T07:43:50.584Z,10.10
2019-02-27T07:46:22.520Z,10.30
2019-02-27T07:48:56.304Z,10.50
2019-02-27T07:51:23.932Z,10.80
2019-02-27T07:53:54.556Z,11.00
2019-02-27T07:56:24.847Z,11.30
2019-02-27T07:58:54.442Z,11.60
2019-02-27T08:01:24.247Z,12.10
2019-02-27T08:03:53.923Z,12.50
2019-02-27T08:06:23.864Z,12.80
2019-02-27T08:08:56.923Z,13.10
2019-02-27T08:11:26.428Z,13.30
2019-02-27T08:13:56.196Z,13.50
2019-02-27T08:16:25.796Z,13.60
2019-02-27T08:18:55.492Z,13.70
2019-02-27T08:21:25.087Z,13.70
2019-02-27T08:23:55.147Z,13.90
2019-02-27T08:26:25.119Z,14.00
2019-02-27T08:28:55.302Z,14.20
2019-02-27T08:31:27.971Z,14.30
2019-02-27T08:33:56.730Z,14.40
2019-02-27T08:36:26.348Z,14.50
2019-02-27T08:38:56.056Z,14.60
2019-02-27T08:41:25.653Z,14.80
2019-02-27T08:43:55.277Z,14.80
2019-02-27T08:46:25.609Z,15.00
2019-02-27T08:48:55.237Z,15.00
2019-02-27T08:51:25.312Z,15.10
2019-02-27T08:53:58.969Z,15.10
2019-02-27T08:56:26.747Z,15.30
2019-02-27T08:58:56.368Z,15.40
2019-02-27T09:01:26.034Z,15.40
2019-02-27T09:03:56.470Z,15.50
2019-02-27T09:06:27.569Z,15.60
2019-02-27T09:08:57.413Z,15.70
2019-02-27T09:11:27.034Z,15.70
2019-02-27T09:13:56.617Z,15.70
2019-02-27T09:16:26.657Z,15.70
2019-02-27T09:18:56.315Z,15.80
2019-02-27T09:21:27.865Z,15.80
2019-02-27T09:23:57.626Z,15.80
2019-02-27T09:26:27.257Z,15.80
2019-02-27T09:28:56.856Z,15.70
2019-02-27T09:31:26.542Z,15.70
2019-02-27T09:33:56.212Z,15.60
2019-02-27T09:36:25.893Z,15.70
2019-02-27T09:38:57.631Z,15.80
2019-02-27T09:41:27.649Z,15.60
2019-02-27T09:43:58.620Z,15.40
2019-02-27T09:46:28.855Z,15.30
2019-02-27T09:48:58.703Z,15.30
2019-02-27T09:51:28.606Z,15.30
2019-02-27T09:53:58.229Z,15.10
2019-02-27T09:56:29.198Z,15.00
2019-02-27T09:58:59.476Z,14.80
2019-02-27T10:01:34.177Z,14.70
2019-02-27T10:04:01.348Z,14.70
2019-02-27T10:06:31.742Z,14.80
2019-02-27T10:09:01.383Z,14.90
2019-02-27T10:11:31.041Z,14.80
2019-02-27T10:14:00.958Z,14.70
2019-02-27T10:16:34.659Z,14.80
2019-02-27T10:19:01.900Z,14.80
2019-02-27T10:21:31.530Z,14.80
2019-02-27T10:24:04.391Z,15.00
2019-02-27T10:26:32.577Z,15.10
2019-02-27T10:29:02.173Z,15.30
2019-02-27T10:31:32.850Z,15.10
2019-02-27T10:34:02.576Z,15.10
2019-02-27T10:36:32.202Z,15.20
2019-02-27T10:39:02.617Z,15.30
2019-02-27T10:41:32.373Z,15.30
2019-02-27T10:44:01.969Z,15.20
2019-02-27T10:46:31.659Z,15.00
2019-02-27T10:49:01.288Z,14.80
2019-02-27T10:51:30.916Z,14.70
2019-02-27T10:54:04.652Z,14.70
2019-02-27T10:56:32.357Z,14.70
2019-02-27T10:59:01.981Z,14.70
2019-02-27T11:01:33.232Z,14.70
2019-02-27T11:04:03.763Z,14.80
2019-02-27T11:06:34.303Z,14.90
2019-02-27T11:09:09.164Z,14.90
2019-02-27T11:11:38.797Z,14.80
2019-02-27T11:14:08.393Z,14.80
2019-02-27T11:16:38.159Z,14.90
2019-02-27T11:19:07.861Z,14.90
2019-02-27T11:21:37.465Z,14.90
2019-02-27T11:24:07.232Z,14.90
2019-02-27T11:26:36.990Z,15.00
2019-02-27T11:29:06.755Z,15.20
2019-02-27T11:31:36.488Z,15.20
2019-02-27T11:34:07.803Z,15.30
2019-02-27T11:36:39.085Z,15.40
2019-02-27T11:39:09.406Z,15.50
2019-02-27T11:41:39.001Z,15.60
2019-02-27T11:44:08.769Z,15.60
2019-02-27T11:46:38.985Z,15.60
2019-02-27T11:49:08.843Z,15.70
2019-02-27T11:51:38.441Z,15.70
2019-02-27T11:54:09.070Z,15.80
2019-02-27T11:56:38.878Z,15.60
2019-02-27T11:59:10.309Z,15.60
2019-02-27T12:01:40.569Z,15.60
2019-02-27T12:04:10.242Z,15.80
2019-02-27T12:06:41.583Z,15.90
2019-02-27T12:09:11.990Z,16.10
2019-02-27T12:11:42.117Z,16.20
2019-02-27T12:14:11.812Z,16.40
2019-02-27T12:16:42.296Z,16.60
2019-02-27T12:19:12.329Z,16.80
2019-02-27T12:21:42.073Z,17.00
2019-02-27T12:24:12.721Z,17.10
2019-02-27T12:26:42.428Z,17.20
2019-02-27T12:29:13.026Z,17.20
2019-02-27T12:31:47.946Z,17.20
2019-02-27T12:34:14.371Z,17.30
2019-02-27T12:36:44.067Z,17.40
2019-02-27T12:39:15.609Z,17.40
2019-02-27T12:41:45.074Z,17.30
2019-02-27T12:44:14.683Z,17.50
2019-02-27T12:46:45.542Z,17.50
2019-02-27T12:49:16.926Z,17.30
2019-02-27T12:51:46.514Z,17.20
2019-02-27T12:54:16.120Z,17.10
2019-02-27T12:56:45.709Z,17.00
2019-02-27T12:59:15.340Z,16.70
2019-02-27T13:01:45.652Z,16.50
2019-02-27T13:04:16.297Z,16.50
2019-02-27T13:06:46.645Z,16.30
2019-02-27T13:09:16.271Z,16.10
2019-02-27T13:11:45.907Z,16.20
2019-02-27T13:14:15.498Z,16.20
2019-02-27T13:16:46.404Z,16.20
2019-02-27T13:19:16.549Z,16.40
2019-02-27T13:21:46.254Z,16.40
2019-02-27T13:24:16.066Z,16.30
2019-02-27T13:26:45.745Z,16.00
2019-02-27T13:29:15.345Z,16.10
2019-02-27T13:31:44.972Z,16.10
2019-02-27T13:34:14.609Z,16.10
2019-02-27T13:36:44.265Z,16.10
2019-02-27T13:39:13.968Z,16.20
2019-02-27T13:41:45.523Z,16.40
2019-02-27T13:44:15.313Z,16.50
2019-02-27T13:46:44.912Z,16.60
2019-02-27T13:49:14.655Z,16.70
2019-02-27T13:51:44.448Z,16.80
2019-02-27T13:54:14.073Z,16.80
2019-02-27T13:56:43.763Z,16.90
2019-02-27T13:59:13.393Z,16.80
2019-02-27T14:01:43.207Z,16.90
2019-02-27T14:04:12.902Z,16.90
2019-02-27T14:06:43.466Z,17.00
2019-02-27T14:09:14.014Z,17.20
2019-02-27T14:11:43.751Z,17.20
2019-02-27T14:14:15.119Z,17.20
2019-02-27T14:16:44.693Z,17.30
2019-02-27T14:19:14.321Z,17.30
2019-02-27T14:21:43.921Z,17.30
2019-02-27T14:24:14.026Z,17.30
2019-02-27T14:26:43.622Z,17.30
2019-02-27T14:29:13.315Z,17.30
2019-02-27T14:31:43.469Z,17.30
2019-02-27T14:34:13.691Z,17.20
2019-02-27T14:36:43.321Z,17.10
2019-02-27T14:39:14.794Z,17.10
2019-02-27T14:41:48.002Z,17.20
2019-02-27T14:44:15.821Z,17.30
2019-02-27T14:46:45.781Z,17.30
2019-02-27T14:49:15.414Z,17.30
2019-02-27T14:51:45.147Z,17.40
2019-02-27T14:54:15.080Z,17.40
2019-02-27T14:56:44.681Z,17.30
2019-02-27T14:59:14.872Z,17.30
2019-02-27T15:01:48.547Z,17.20
2019-02-27T15:04:15.885Z,17.20
2019-02-27T15:06:45.485Z,17.20
2019-02-27T15:09:15.175Z,17.20
2019-02-27T15:11:44.971Z,17.20
2019-02-27T15:14:16.130Z,17.20
2019-02-27T15:16:49.006Z,17.20
2019-02-27T15:19:18.901Z,17.20
2019-02-27T15:21:48.762Z,17.20
2019-02-27T15:24:18.389Z,17.10
2019-02-27T15:26:50.442Z,17.10
2019-02-27T15:29:19.331Z,17.10
2019-02-27T15:31:48.951Z,17.10
2019-02-27T15:34:18.616Z,17.00
2019-02-27T15:36:48.325Z,17.00
2019-02-27T15:39:21.131Z,16.90
2019-02-27T15:41:49.231Z,16.80
2019-02-27T15:44:18.859Z,16.80
2019-02-27T15:46:48.453Z,16.70
2019-02-27T15:49:18.141Z,16.70
2019-02-27T15:51:47.773Z,16.70
2019-02-27T15:54:17.363Z,16.60
2019-02-27T15:56:46.987Z,16.50
2019-02-27T15:59:16.578Z,16.40
2019-02-27T16:01:46.171Z,16.40
2019-02-27T16:04:17.558Z,16.30
2019-02-27T16:06:47.588Z,16.20
2019-02-27T16:09:17.289Z,16.20
2019-02-27T16:11:48.121Z,16.00
2019-02-27T16:14:18.223Z,15.90
2019-02-27T16:16:47.820Z,15.80
2019-02-27T16:19:19.054Z,15.60
2019-02-27T16:21:48.675Z,15.40
2019-02-27T16:24:18.265Z,15.30
2019-02-27T16:26:47.888Z,15.00
2019-02-27T16:29:19.898Z,14.70
2019-02-27T16:31:48.902Z,14.40
2019-02-27T16:34:18.505Z,14.20
2019-02-27T16:36:48.182Z,13.90
2019-02-27T16:39:17.833Z,13.50
2019-02-27T16:41:47.533Z,13.20
2019-02-27T16:44:21.385Z,12.80
2019-02-27T16:46:48.494Z,12.70
2019-02-27T16:49:18.113Z,12.50
2019-02-27T16:51:47.715Z,12.20
2019-02-27T16:54:19.131Z,11.90
2019-02-27T16:56:50.893Z,11.60
2019-02-27T16:59:20.032Z,11.40
2019-02-27T17:01:49.650Z,11.10
2019-02-27T17:04:19.245Z,11.00
2019-02-27T17:06:49.226Z,11.10
2019-02-27T17:09:20.233Z,11.10
2019-02-27T17:11:49.829Z,11.10
2019-02-27T17:14:21.232Z,11.20
2019-02-27T17:16:50.785Z,11.10
2019-02-27T17:19:20.427Z,11.10
2019-02-27T17:21:50.032Z,11.00
2019-02-27T17:24:21.910Z,10.90
2019-02-27T17:26:50.991Z,10.80
2019-02-27T17:29:22.866Z,10.60
2019-02-27T17:31:55.292Z,10.50
2019-02-27T17:34:23.282Z,10.30
2019-02-27T17:36:52.906Z,9.90
2019-02-27T17:39:27.680Z,9.70
2019-02-27T17:41:53.875Z,9.50
2019-02-27T17:44:23.490Z,9.30
2019-02-27T17:46:54.676Z,9.10
2019-02-27T17:49:25.473Z,8.90
2019-02-27T17:51:55.711Z,8.70
2019-02-27T17:54:25.308Z,8.60
2019-02-27T17:56:54.926Z,8.60
2019-02-27T17:59:24.516Z,8.80
2019-02-27T18:01:58.504Z,8.70
2019-02-27T18:04:25.455Z,8.30
2019-02-27T18:06:55.120Z,8.10
2019-02-27T18:09:26.368Z,7.90
2019-02-27T18:11:56.171Z,7.80
2019-02-27T18:14:25.778Z,7.70
2019-02-27T18:16:55.396Z,7.70
2019-02-27T18:19:25.020Z,7.80
2019-02-27T18:21:54.631Z,8.00
2019-02-27T18:24:24.292Z,8.30
2019-02-27T18:26:54.178Z,8.50
2019-02-27T18:29:23.795Z,8.60
2019-02-27T18:31:53.385Z,8.30
2019-02-27T18:34:22.999Z,7.60
2019-02-27T18:36:52.618Z,7.10
2019-02-27T18:39:22.210Z,6.70
2019-02-27T18:41:51.899Z,6.70
2019-02-27T18:44:21.544Z,6.90
2019-02-27T18:46:51.121Z,6.90
2019-02-27T18:49:21.009Z,6.80
2019-02-27T18:51:50.598Z,6.90
2019-02-27T18:54:22.571Z,7.10
2019-02-27T18:56:51.638Z,7.30
2019-02-27T18:59:21.253Z,7.40
2019-02-27T19:01:50.915Z,7.50
2019-02-27T19:04:20.536Z,7.50
2019-02-27T19:06:50.156Z,7.50
2019-02-27T19:09:19.888Z,7.50
2019-02-27T19:11:50.891Z,7.60
2019-02-27T19:14:21.022Z,7.60
2019-02-27T19:16:52.115Z,7.60
2019-02-27T19:19:22.121Z,7.70
2019-02-27T19:21:51.723Z,7.60
2019-02-27T19:24:26.663Z,7.10
2019-02-27T19:26:52.793Z,6.60
2019-02-27T19:29:22.540Z,6.30
2019-02-27T19:31:52.138Z,6.10
2019-02-27T19:34:21.750Z,6.00
2019-02-27T19:36:51.337Z,5.70
2019-02-27T19:39:21.879Z,5.70
2019-02-27T19:41:52.283Z,5.90
2019-02-27T19:44:21.979Z,5.90
2019-02-27T19:46:51.566Z,6.00
2019-02-27T19:49:21.155Z,6.30
2019-02-27T19:51:54.618Z,6.50
2019-02-27T19:54:22.249Z,6.70
2019-02-27T19:56:51.935Z,6.80
2019-02-27T19:59:24.691Z,6.70
2019-02-27T20:01:53.063Z,6.70
2019-02-27T20:04:22.717Z,6.70
2019-02-27T20:06:52.337Z,6.50
2019-02-27T20:09:22.263Z,5.90
2019-02-27T20:11:51.950Z,5.60
2019-02-27T20:14:21.607Z,5.40
2019-02-27T20:16:54.929Z,5.20
2019-02-27T20:19:28.418Z,5.00
2019-02-27T20:21:54.168Z,4.90
2019-02-27T20:24:23.755Z,4.80
2019-02-27T20:26:54.687Z,4.70
2019-02-27T20:29:24.510Z,4.60
2019-02-27T20:31:54.434Z,4.40
2019-02-27T20:34:24.897Z,4.00
2019-02-27T20:36:54.784Z,3.50
2019-02-27T20:39:24.466Z,3.40
2019-02-27T20:41:54.202Z,3.30
2019-02-27T20:44:23.859Z,3.40
2019-02-27T20:46:53.452Z,3.50
2019-02-27T20:49:23.072Z,3.60
2019-02-27T20:51:52.664Z,3.60
2019-02-27T20:54:22.342Z,3.60
2019-02-27T20:56:55.571Z,3.90
2019-02-27T20:59:26.093Z,4.10
2019-02-27T21:01:54.754Z,4.00
2019-02-27T21:04:24.343Z,3.90
2019-02-27T21:06:53.959Z,3.70
2019-02-27T21:09:23.539Z,3.40
2019-02-27T21:11:53.154Z,3.60
2019-02-27T21:14:23.660Z,4.00
2019-02-27T21:16:54.078Z,4.00
2019-02-27T21:19:23.758Z,3.70
2019-02-27T21:21:54.493Z,3.40
2019-02-27T21:24:24.136Z,3.40
2019-02-27T21:26:54.159Z,3.50
2019-02-27T21:29:23.982Z,3.60
2019-02-27T21:31:53.638Z,3.80
2019-02-27T21:34:23.326Z,3.80
2019-02-27T21:36:52.990Z,3.80
2019-02-27T21:39:25.217Z,3.60
2019-02-27T21:41:53.914Z,3.30
2019-02-27T21:44:25.685Z,3.10
2019-02-27T21:46:54.846Z,3.00
2019-02-27T21:49:24.460Z,3.00
2019-02-27T21:51:54.051Z,3.40
2019-02-27T21:54:23.637Z,3.50
2019-02-27T21:56:55.107Z,3.40
2019-02-27T21:59:24.592Z,3.40
2019-02-27T22:01:56.231Z,3.40
2019-02-27T22:04:25.593Z,3.20
2019-02-27T22:06:58.410Z,3.10
2019-02-27T22:09:26.798Z,2.70
2019-02-27T22:11:58.162Z,2.40
2019-02-27T22:14:27.817Z,2.50
2019-02-27T22:16:57.403Z,2.60
2019-02-27T22:19:27.086Z,3.00
2019-02-27T22:21:56.701Z,3.40
2019-02-27T22:24:26.297Z,3.50
2019-02-27T22:26:55.907Z,3.50
2019-02-27T22:29:27.897Z,3.50
2019-02-27T22:31:56.834Z,3.80
2019-02-27T22:34:27.790Z,3.90
2019-02-27T22:36:57.753Z,3.60
2019-02-27T22:39:27.378Z,3.20
2019-02-27T22:41:56.989Z,2.80
2019-02-27T22:44:29.197Z,2.90
2019-02-27T22:46:57.920Z,3.20
2019-02-27T22:49:27.543Z,2.90
2019-02-27T22:51:57.158Z,2.70
2019-02-27T22:54:26.773Z,2.70
2019-02-27T22:56:56.364Z,2.60
2019-02-27T22:59:25.986Z,2.60
2019-02-27T23:01:56.253Z,2.40
2019-02-27T23:04:26.379Z,2.30
2019-02-27T23:06:56.137Z,2.20
2019-02-27T23:09:26.488Z,2.40
2019-02-27T23:11:56.380Z,2.50
2019-02-27T23:14:26.060Z,2.30
2019-02-27T23:16:55.739Z,2.10
2019-02-27T23:19:25.420Z,2.20
2019-02-27T23:21:57.565Z,2.30
2019-02-27T23:24:26.684Z,2.20
2019-02-27T23:26:56.297Z,2.10
2019-02-27T23:29:25.886Z,2.00
2019-02-27T23:31:55.843Z,2.00
2019-02-27T23:34:25.557Z,1.90
2019-02-27T23:36:55.805Z,1.70
2019-02-27T23:39:26.245Z,1.50
2019-02-27T23:41:56.565Z,1.60
2019-02-27T23:44:26.850Z,1.70
2019-02-27T23:46:57.466Z,1.70
2019-02-27T23:49:27.739Z,1.80
2019-02-27T23:51:57.361Z,1.90
2019-02-27T23:54:26.967Z,1.80
2019-02-27T23:56:56.579Z,1.70
2019-02-27T23:59:26.165Z,1.70
